Terminal Aerodrome Forecast
Issued by NWS

Home | Current Version | Previous Version | Text Only | Print | Product List | Glossary On
Versions: 1 2 3 4 5 6 7 8 9 10 11 12
000
FTUS46 KEKA 300500
TAFUKI
TAF
KUKI 300539Z 3006/3106 VRB03KT P6SM FEW150
     FM301730 12005KT P6SM SCT200
     FM302200 27010KT P6SM FEW040 SCT200=

USA.gov is the U.S. government's official web portal to all federal, state and local government web resources and services.